Time;durP1;ratioP1;P1;durP2;ratioP2;P2;SDS_P1;SDS_P2;PMS_P1;PMS_P2;Temp;Humidity;BMP_temperature;BMP_pressure;BME280_temperature;BME280_humidity;BME280_pressure;Samples;Min_cycle;Max_cycle;Signal;HPM_P1;HPM_P2
2022/01/06 00:00:24;;;;;;;5.40;0.80;;;3.70;99.90;;;;;;4957716;28;20053;-79
2022/01/06 00:02:49;;;;;;;6.25;1.45;;;3.70;99.90;;;;;;4958195;28;20054;-79
2022/01/06 00:05:15;;;;;;;5.22;1.40;;;3.70;99.90;;;;;;4957732;28;20042;-79
2022/01/06 00:11:05;;;;;;;3.47;0.75;;;3.60;99.90;;;;;;4975197;28;20125;-79
2022/01/06 00:13:46;;;;;;;3.67;0.85;;;3.50;99.90;;;;;;4958265;28;20082;-79
2022/01/06 00:24:17;;;;;;;7.18;1.20;;;3.30;99.90;;;;;;4957375;28;20463;-79
2022/01/06 00:26:43;;;;;;;7.40;1.73;;;3.20;99.90;;;;;;4957202;28;20046;-80
2022/01/06 00:29:09;;;;;;;11.60;1.40;;;3.10;99.90;;;;;;4957291;28;20046;-79
2022/01/06 00:31:35;;;;;;;7.43;1.40;;;3.10;99.90;;;;;;4957388;28;20616;-79
2022/01/06 00:34:01;;;;;;;15.48;2.38;;;3.10;99.90;;;;;;4974765;28;20050;-80
2022/01/06 00:36:27;;;;;;;8.38;1.58;;;3.10;99.90;;;;;;4957155;28;20388;-79
2022/01/06 00:38:53;;;;;;;13.23;1.52;;;3.10;99.90;;;;;;4956964;28;20047;-79
2022/01/06 00:41:18;;;;;;;13.32;1.77;;;3.00;99.90;;;;;;4956852;28;20080;-79
2022/01/06 00:43:44;;;;;;;17.83;3.30;;;3.00;99.90;;;;;;4956850;28;20039;-79
2022/01/06 00:49:51;;;;;;;9.50;1.73;;;2.90;99.90;;;;;;4973705;28;20048;-76
2022/01/06 00:52:16;;;;;;;12.23;1.67;;;2.90;99.90;;;;;;4956296;28;20043;-76
2022/01/06 00:54:42;;;;;;;11.43;2.17;;;2.90;99.90;;;;;;4956191;28;20109;-76
2022/01/06 00:57:08;;;;;;;15.18;1.67;;;2.90;99.90;;;;;;4956227;28;20046;-76
2022/01/06 00:59:33;;;;;;;11.80;1.77;;;2.90;99.90;;;;;;4956156;28;20563;-76
2022/01/06 01:01:59;;;;;;;6.68;1.50;;;2.90;99.90;;;;;;4956423;28;20043;-76
2022/01/06 01:04:24;;;;;;;17.90;2.45;;;2.80;99.90;;;;;;4956139;28;20039;-76
2022/01/06 01:06:50;;;;;;;16.70;2.55;;;2.70;99.90;;;;;;4955875;28;20042;-77
2022/01/06 01:09:15;;;;;;;8.68;1.48;;;2.70;99.90;;;;;;4956060;28;20389;-76
2022/01/06 01:11:41;;;;;;;7.50;1.52;;;2.70;99.90;;;;;;4956012;28;20389;-76
2022/01/06 01:14:27;;;;;;;10.65;1.60;;;2.70;99.90;;;;;;4955977;28;20488;-76
2022/01/06 01:16:56;;;;;;;10.85;1.70;;;2.60;99.90;;;;;;4955917;28;20051;-76
2022/01/06 01:19:22;;;;;;;14.93;2.85;;;2.60;99.90;;;;;;4955827;28;20054;-76
2022/01/06 01:21:48;;;;;;;8.65;1.98;;;2.50;99.90;;;;;;4955904;28;20055;-76
2022/01/06 01:24:15;;;;;;;16.00;1.95;;;2.40;99.90;;;;;;4956133;28;20380;-76
2022/01/06 01:26:41;;;;;;;15.55;2.10;;;2.40;99.90;;;;;;4939389;28;20401;-76
2022/01/06 01:29:13;;;;;;;18.27;3.38;;;2.40;99.90;;;;;;4955649;28;20054;-76
2022/01/06 01:31:44;;;;;;;9.02;2.10;;;2.40;99.90;;;;;;4955965;28;20396;-76
2022/01/06 01:34:12;;;;;;;17.67;1.97;;;2.30;99.90;;;;;;4955817;28;20126;-76
2022/01/06 01:36:38;;;;;;;13.05;2.03;;;2.30;99.90;;;;;;4955706;28;20046;-76
2022/01/06 01:39:04;;;;;;;16.60;2.55;;;2.30;99.90;;;;;;4955648;28;20054;-76
2022/01/06 01:41:30;;;;;;;18.30;2.33;;;2.30;99.90;;;;;;4955637;28;20492;-76
2022/01/06 01:43:55;;;;;;;14.55;3.55;;;2.30;99.90;;;;;;4939551;28;20039;-76
2022/01/06 01:46:29;;;;;;;11.63;1.95;;;2.30;99.90;;;;;;4955617;28;20046;-76
2022/01/06 01:49:31;;;;;;;19.08;3.03;;;2.20;99.90;;;;;;4955521;28;20085;-76
2022/01/06 01:51:44;;;;;;;11.98;2.75;;;2.30;99.90;;;;;;4955265;28;20070;-76
2022/01/06 01:54:10;;;;;;;20.23;3.40;;;2.20;99.90;;;;;;4955813;28;20089;-76
2022/01/06 01:56:37;;;;;;;13.25;1.75;;;2.20;99.90;;;;;;4972510;28;20039;-76
2022/01/06 01:59:03;;;;;;;14.65;2.30;;;2.20;99.90;;;;;;4955331;28;20427;-76
2022/01/06 02:01:28;;;;;;;17.10;1.90;;;2.10;99.90;;;;;;4955518;28;20055;-76
2022/01/06 02:03:54;;;;;;;12.20;2.28;;;2.00;99.90;;;;;;4955787;28;20031;-76
2022/01/06 02:06:20;;;;;;;15.10;2.65;;;2.00;99.90;;;;;;4955390;28;20042;-76
2022/01/06 02:08:46;;;;;;;13.18;2.30;;;1.90;99.90;;;;;;4972715;28;20051;-76
2022/01/06 02:11:12;;;;;;;14.10;2.42;;;1.90;99.90;;;;;;4955266;28;20042;-76
2022/01/06 02:13:50;;;;;;;22.48;3.63;;;1.80;99.90;;;;;;4955394;28;20463;-76
2022/01/06 02:16:25;;;;;;;15.25;2.78;;;1.80;99.90;;;;;;4955316;28;20074;-76
2022/01/06 02:18:51;;;;;;;13.63;2.45;;;1.80;99.90;;;;;;4956861;28;20051;-76
2022/01/06 02:21:17;;;;;;;13.20;2.20;;;1.80;99.90;;;;;;4959403;28;20380;-76
2022/01/06 02:23:43;;;;;;;19.13;2.28;;;1.80;99.90;;;;;;4959141;28;20050;-76
2022/01/06 02:26:09;;;;;;;8.18;1.75;;;1.70;99.90;;;;;;4958774;28;20054;-76
2022/01/06 02:28:35;;;;;;;16.33;2.15;;;1.70;99.90;;;;;;4959193;28;20038;-76
2022/01/06 02:31:01;;;;;;;12.32;1.75;;;1.60;99.90;;;;;;4958885;28;20038;-76
2022/01/06 02:33:27;;;;;;;17.52;2.50;;;1.60;99.90;;;;;;4959104;28;20097;-76
2022/01/06 02:35:54;;;;;;;14.70;2.20;;;1.60;99.90;;;;;;4958604;28;20097;-76
2022/01/06 02:38:20;;;;;;;22.42;2.70;;;1.60;99.90;;;;;;4958639;28;20078;-76
2022/01/06 02:40:46;;;;;;;16.00;2.67;;;1.60;99.90;;;;;;4959159;28;20042;-76
2022/01/06 02:43:14;;;;;;;11.02;1.70;;;1.60;99.90;;;;;;4958619;28;20097;-76
2022/01/06 02:45:40;;;;;;;13.93;2.00;;;1.50;99.90;;;;;;4958428;28;20523;-76
2022/01/06 02:48:08;;;;;;;14.88;3.05;;;1.50;99.90;;;;;;4958589;28;20050;-76
2022/01/06 02:50:38;;;;;;;17.80;1.80;;;1.50;99.90;;;;;;4958580;28;20420;-76
2022/01/06 02:53:04;;;;;;;14.80;2.40;;;1.50;99.90;;;;;;4942667;28;20050;-76
2022/01/06 02:55:30;;;;;;;21.30;2.58;;;1.40;99.90;;;;;;4958317;28;20047;-76
2022/01/06 02:57:55;;;;;;;22.38;2.60;;;1.50;99.90;;;;;;4958556;28;20051;-76
2022/01/06 03:00:21;;;;;;;10.10;2.33;;;1.50;99.90;;;;;;4958393;28;20049;-76
2022/01/06 03:02:47;;;;;;;21.83;3.22;;;1.50;99.90;;;;;;4975663;28;20045;-76
2022/01/06 03:05:14;;;;;;;19.25;2.78;;;1.50;99.90;;;;;;4958038;28;20070;-76
2022/01/06 03:07:41;;;;;;;13.30;2.10;;;1.40;99.90;;;;;;4958211;28;20050;-76
2022/01/06 03:10:11;;;;;;;12.85;1.75;;;1.40;99.90;;;;;;4958089;28;20109;-76
2022/01/06 03:12:39;;;;;;;15.00;2.63;;;1.40;99.90;;;;;;4958126;28;20072;-76
2022/01/06 03:15:10;;;;;;;16.70;2.42;;;1.40;99.90;;;;;;4957766;28;20045;-76
2022/01/06 03:17:38;;;;;;;22.83;2.25;;;1.30;99.90;;;;;;4958070;28;20101;-76
2022/01/06 03:20:06;;;;;;;14.55;2.25;;;1.30;99.90;;;;;;4957984;28;20097;-76
2022/01/06 03:22:31;;;;;;;12.68;2.50;;;1.30;99.90;;;;;;4957873;28;20098;-76
2022/01/06 03:24:57;;;;;;;12.45;1.75;;;1.30;99.90;;;;;;4957953;28;20444;-76
2022/01/06 03:27:22;;;;;;;12.45;1.65;;;1.30;99.90;;;;;;4957725;28;20463;-76
2022/01/06 03:29:50;;;;;;;18.70;3.00;;;1.30;99.90;;;;;;4974084;28;20066;-76
2022/01/06 03:32:16;;;;;;;8.80;1.70;;;1.40;99.90;;;;;;4957662;28;20046;-76
2022/01/06 03:34:42;;;;;;;8.57;2.22;;;1.40;99.90;;;;;;4941782;28;20046;-76
2022/01/06 03:37:07;;;;;;;12.20;2.53;;;1.40;99.90;;;;;;4957819;28;20373;-76
2022/01/06 03:39:33;;;;;;;12.80;1.33;;;1.40;99.90;;;;;;4957406;28;20089;-76
2022/01/06 03:41:59;;;;;;;5.95;1.73;;;1.40;99.90;;;;;;4941685;28;20118;-76
2022/01/06 03:44:25;;;;;;;12.15;1.70;;;1.40;99.90;;;;;;4957508;28;20046;-76
2022/01/06 03:46:52;;;;;;;10.77;1.55;;;1.30;99.90;;;;;;4957485;28;20146;-76
2022/01/06 03:49:18;;;;;;;12.27;1.45;;;1.30;99.90;;;;;;4957703;28;20043;-76
2022/01/06 03:51:43;;;;;;;12.77;2.13;;;1.40;99.90;;;;;;4957433;28;20571;-76
2022/01/06 03:54:09;;;;;;;12.02;1.58;;;1.40;99.90;;;;;;4957585;28;20050;-76
2022/01/06 03:56:34;;;;;;;18.05;1.95;;;1.40;99.90;;;;;;4957169;28;20038;-77
2022/01/06 03:59:01;;;;;;;15.23;2.80;;;1.40;99.90;;;;;;4957181;28;20073;-79
2022/01/06 04:01:26;;;;;;;13.48;1.88;;;1.40;99.90;;;;;;4957118;28;20130;-78
2022/01/06 04:03:52;;;;;;;9.60;1.98;;;1.40;99.90;;;;;;4974584;28;20466;-79
2022/01/06 04:06:17;;;;;;;16.30;1.85;;;1.40;99.90;;;;;;4956899;28;20039;-78
2022/01/06 04:08:44;;;;;;;8.82;1.75;;;1.40;99.90;;;;;;4974533;28;20043;-79
2022/01/06 04:11:10;;;;;;;12.18;2.70;;;1.30;99.90;;;;;;4957112;28;20628;-78
2022/01/06 04:13:36;;;;;;;16.23;1.90;;;1.30;99.90;;;;;;4956994;28;20101;-79
2022/01/06 04:16:06;;;;;;;5.45;1.58;;;1.20;99.90;;;;;;4956738;28;20046;-79
2022/01/06 04:18:32;;;;;;;15.05;1.90;;;1.10;99.90;;;;;;4974196;28;20051;-79
2022/01/06 04:20:57;;;;;;;13.70;3.30;;;1.00;99.90;;;;;;4956941;28;20054;-78
2022/01/06 04:23:23;;;;;;;7.82;1.33;;;1.00;99.90;;;;;;4956821;28;20495;-78
2022/01/06 04:25:49;;;;;;;10.75;2.40;;;0.90;99.90;;;;;;4956875;28;20030;-80
2022/01/06 04:28:14;;;;;;;13.90;2.13;;;0.90;99.90;;;;;;4956707;28;20078;-79
2022/01/06 04:30:40;;;;;;;12.48;1.60;;;0.80;99.90;;;;;;4974041;28;20408;-79
2022/01/06 04:33:05;;;;;;;15.73;2.40;;;0.70;99.90;;;;;;4956659;28;20061;-79
2022/01/06 04:35:31;;;;;;;5.95;1.77;;;0.70;99.90;;;;;;4956707;28;20496;-80
2022/01/06 04:37:56;;;;;;;14.43;2.30;;;0.70;99.90;;;;;;4956351;28;20050;-77
2022/01/06 04:40:22;;;;;;;10.18;1.65;;;0.70;99.90;;;;;;4956868;28;20496;-77
2022/01/06 04:42:47;;;;;;;5.07;1.95;;;0.70;99.90;;;;;;4940312;28;20558;-77
2022/01/06 04:45:13;;;;;;;6.78;1.42;;;0.70;99.90;;;;;;4956173;28;20158;-77
2022/01/06 04:47:38;;;;;;;14.80;2.25;;;0.60;99.90;;;;;;4956335;28;20042;-77
2022/01/06 04:50:04;;;;;;;9.18;2.17;;;0.60;99.90;;;;;;4956578;28;20055;-77
2022/01/06 04:52:30;;;;;;;18.90;2.38;;;0.60;99.90;;;;;;4956609;28;20492;-77
2022/01/06 04:54:56;;;;;;;11.82;2.17;;;0.60;99.90;;;;;;4956341;28;20129;-77
2022/01/06 04:57:22;;;;;;;11.63;2.55;;;0.60;99.90;;;;;;4956339;28;20038;-77
2022/01/06 04:59:48;;;;;;;14.05;1.40;;;0.60;99.90;;;;;;4955932;28;20559;-77
2022/01/06 05:02:13;;;;;;;8.52;2.03;;;0.60;99.90;;;;;;4956138;28;20046;-77
2022/01/06 05:04:39;;;;;;;8.48;2.00;;;0.60;99.90;;;;;;4940493;28;20038;-77
2022/01/06 05:07:04;;;;;;;11.88;1.98;;;0.60;99.90;;;;;;4956158;28;20039;-77
2022/01/06 05:09:30;;;;;;;14.70;2.30;;;0.60;99.90;;;;;;4956421;28;20484;-77
2022/01/06 05:11:56;;;;;;;11.57;2.17;;;0.50;99.90;;;;;;4956051;28;20050;-77
2022/01/06 05:14:21;;;;;;;9.85;2.42;;;0.50;99.90;;;;;;4955983;28;20484;-77
2022/01/06 05:16:47;;;;;;;17.83;2.67;;;0.50;99.90;;;;;;4955763;28;20050;-77
2022/01/06 05:19:12;;;;;;;15.00;2.67;;;0.50;99.90;;;;;;4955882;28;20050;-77
2022/01/06 05:21:38;;;;;;;9.65;2.00;;;0.50;99.90;;;;;;4955838;28;20077;-77
2022/01/06 05:24:12;;;;;;;16.60;3.28;;;0.50;99.90;;;;;;4955948;28;20043;-78
2022/01/06 05:26:39;;;;;;;10.32;2.25;;;0.50;99.90;;;;;;4955715;28;20476;-79
2022/01/06 05:29:09;;;;;;;11.70;2.30;;;0.40;99.90;;;;;;4955631;28;20054;-79
2022/01/06 05:31:35;;;;;;;12.25;1.60;;;0.40;99.90;;;;;;4956319;28;20452;-79
2022/01/06 05:34:01;;;;;;;11.40;1.50;;;0.40;99.90;;;;;;4955716;28;20051;-79
2022/01/06 05:36:26;;;;;;;14.65;1.77;;;0.40;99.90;;;;;;4955736;28;20426;-79
2022/01/06 05:38:52;;;;;;;7.80;2.85;;;0.40;99.90;;;;;;4955484;28;20065;-79
2022/01/06 05:41:19;;;;;;;6.63;1.60;;;0.40;99.90;;;;;;4955715;28;20038;-79
2022/01/06 05:43:44;;;;;;;8.45;1.80;;;0.30;99.90;;;;;;4955618;28;20080;-79
2022/01/06 05:46:10;;;;;;;9.60;1.80;;;0.40;99.90;;;;;;4955412;28;20078;-79
2022/01/06 05:48:36;;;;;;;14.13;2.42;;;0.30;99.90;;;;;;4955571;28;20043;-79
2022/01/06 05:51:01;;;;;;;16.25;2.70;;;0.30;99.90;;;;;;4955809;28;20051;-79
2022/01/06 05:53:28;;;;;;;23.08;2.63;;;0.30;99.90;;;;;;4956588;28;20047;-79
2022/01/06 05:55:53;;;;;;;14.50;3.45;;;0.30;99.90;;;;;;4959362;28;20098;-79
2022/01/06 05:58:19;;;;;;;12.43;1.80;;;0.30;99.90;;;;;;4959631;28;20043;-79
2022/01/06 06:00:45;;;;;;;13.50;2.10;;;0.30;99.90;;;;;;4959567;28;20053;-78
2022/01/06 06:03:10;;;;;;;17.30;2.05;;;0.30;99.90;;;;;;4959401;28;20070;-79
2022/01/06 06:05:36;;;;;;;12.40;1.98;;;0.30;99.90;;;;;;4959809;28;20085;-79
2022/01/06 06:08:01;;;;;;;11.10;2.20;;;0.30;99.90;;;;;;4976651;28;20043;-79
2022/01/06 06:10:27;;;;;;;8.30;1.60;;;0.20;99.90;;;;;;4959390;28;20074;-79
2022/01/06 06:12:53;;;;;;;14.48;2.35;;;0.20;99.90;;;;;;4959248;28;20502;-79
2022/01/06 06:15:20;;;;;;;6.60;1.75;;;0.20;99.90;;;;;;4959231;28;20134;-79
2022/01/06 06:17:46;;;;;;;16.08;2.33;;;0.20;99.90;;;;;;4963614;28;20050;-81
2022/01/06 06:20:12;;;;;;;20.95;4.47;;;0.20;99.90;;;;;;4966811;28;20035;-81
2022/01/06 06:22:38;;;;;;;15.30;2.78;;;0.20;99.90;;;;;;4968950;28;20034;-81
2022/01/06 06:25:05;;;;;;;14.98;2.90;;;0.20;99.90;;;;;;4951916;28;20049;-81
2022/01/06 06:27:30;;;;;;;10.00;1.80;;;0.20;99.90;;;;;;4951038;28;20035;-81
2022/01/06 06:29:56;;;;;;;9.73;1.60;;;0.20;99.90;;;;;;4951304;28;20109;-81
2022/01/06 06:32:22;;;;;;;19.02;2.13;;;0.20;99.90;;;;;;4952308;28;20039;-81
2022/01/06 06:34:48;;;;;;;17.55;2.83;;;0.20;99.90;;;;;;4948763;28;20073;-79
2022/01/06 06:37:13;;;;;;;9.07;1.98;;;0.20;99.90;;;;;;4943506;28;20125;-79
2022/01/06 06:39:39;;;;;;;8.48;2.08;;;0.20;99.90;;;;;;4959157;28;20046;-80
2022/01/06 06:42:05;;;;;;;19.80;4.70;;;0.20;99.90;;;;;;4976177;28;20488;-79
2022/01/06 06:44:30;;;;;;;42.10;13.85;;;0.20;99.90;;;;;;4961044;28;20043;-81
2022/01/06 06:46:56;;;;;;;20.55;6.25;;;0.10;99.90;;;;;;4984631;28;20050;-81
2022/01/06 06:49:22;;;;;;;20.98;5.93;;;0.20;99.90;;;;;;4968304;28;20085;-81
2022/01/06 06:51:48;;;;;;;21.13;3.80;;;0.10;99.90;;;;;;4969146;28;20047;-81
2022/01/06 06:54:13;;;;;;;22.40;2.65;;;0.10;99.90;;;;;;4952492;28;20042;-80
2022/01/06 06:56:41;;;;;;;12.38;2.08;;;0.10;99.90;;;;;;4967954;28;20050;-81
2022/01/06 06:59:06;;;;;;;16.33;3.15;;;0.10;99.90;;;;;;4985160;28;20043;-81
2022/01/06 07:01:32;;;;;;;6.85;2.10;;;0.20;99.90;;;;;;4968353;28;20042;-81
2022/01/06 07:03:57;;;;;;;16.88;2.92;;;0.00;99.90;;;;;;4984354;28;20039;-81
2022/01/06 07:06:23;;;;;;;12.55;2.42;;;0.00;99.90;;;;;;4950729;28;20081;-81
2022/01/06 07:08:48;;;;;;;14.63;2.30;;;-0.10;99.90;;;;;;4958383;28;20042;-79
2022/01/06 07:11:14;;;;;;;12.18;2.42;;;-0.10;99.90;;;;;;4942392;28;20182;-79
2022/01/06 07:13:39;;;;;;;13.63;2.35;;;-0.10;99.90;;;;;;4958536;28;20121;-79
2022/01/06 07:16:05;;;;;;;9.05;2.00;;;0.00;99.90;;;;;;4975596;28;20049;-81
2022/01/06 07:18:31;;;;;;;19.33;2.13;;;-0.10;99.90;;;;;;4944661;28;20093;-80
2022/01/06 07:20:57;;;;;;;10.75;2.30;;;-0.10;99.90;;;;;;4961192;28;20134;-80
2022/01/06 07:23:23;;;;;;;12.88;1.83;;;-0.10;99.90;;;;;;4978478;28;20108;-80
2022/01/06 07:25:48;;;;;;;21.40;7.65;;;-0.20;99.90;;;;;;4961425;28;20034;-80
2022/01/06 07:28:14;;;;;;;14.00;3.35;;;-0.20;99.90;;;;;;4967576;28;20047;-80
2022/01/06 07:30:40;;;;;;;18.73;3.15;;;-0.20;99.90;;;;;;4969203;28;20038;-82
2022/01/06 07:33:05;;;;;;;12.63;2.97;;;-0.20;99.90;;;;;;4951689;28;20066;-81
2022/01/06 07:35:31;;;;;;;9.52;2.42;;;-0.20;99.90;;;;;;4967591;28;20045;-81
2022/01/06 07:37:56;;;;;;;12.60;3.47;;;-0.20;99.90;;;;;;4985036;28;20050;-81
2022/01/06 07:40:22;;;;;;;9.32;2.05;;;-0.20;99.90;;;;;;4986654;28;20030;-80
2022/01/06 07:42:49;;;;;;;12.25;3.97;;;-0.20;99.90;;;;;;4986752;28;20042;-80
2022/01/06 07:45:15;;;;;;;16.95;2.92;;;-0.20;99.90;;;;;;4953719;28;20062;-80
2022/01/06 07:47:55;;;;;;;11.27;2.78;;;-0.20;99.90;;;;;;4968953;28;20043;-80
2022/01/06 07:50:32;;;;;;;10.00;1.73;;;-0.20;99.90;;;;;;4970060;28;20041;-80
2022/01/06 07:52:58;;;;;;;7.32;2.05;;;-0.20;99.90;;;;;;4969321;28;20090;-80
2022/01/06 07:55:24;;;;;;;13.63;2.13;;;-0.20;99.90;;;;;;4968376;28;20070;-80
2022/01/06 07:57:50;;;;;;;15.15;2.63;;;-0.20;99.90;;;;;;4982012;28;20169;-81
2022/01/06 08:00:17;;;;;;;8.23;1.70;;;-0.20;99.90;;;;;;4977204;28;20078;-80
2022/01/06 08:02:44;;;;;;;18.10;2.30;;;-0.30;99.90;;;;;;4977616;28;20489;-80
2022/01/06 08:05:12;;;;;;;15.50;2.72;;;-0.30;99.90;;;;;;4977183;28;20283;-80
2022/01/06 08:07:38;;;;;;;6.20;1.75;;;-0.30;99.90;;;;;;4977161;28;20061;-80
2022/01/06 08:10:04;;;;;;;161.32;58.45;;;-0.30;99.90;;;;;;4965956;28;20102;-82
2022/01/06 08:12:30;;;;;;;34.65;8.82;;;-0.30;99.90;;;;;;4984463;28;20555;-82
2022/01/06 08:14:55;;;;;;;16.50;2.88;;;-0.20;99.90;;;;;;4967587;28;20102;-81
2022/01/06 08:17:21;;;;;;;13.32;3.00;;;-0.20;99.90;;;;;;4983079;28;20042;-81
2022/01/06 08:19:47;;;;;;;13.70;2.80;;;-0.20;99.90;;;;;;4984306;28;20141;-81
2022/01/06 08:22:13;;;;;;;15.10;2.00;;;-0.10;99.90;;;;;;4951350;28;20039;-81
2022/01/06 08:24:39;;;;;;;13.75;2.50;;;-0.10;99.90;;;;;;4984678;28;20131;-81
2022/01/06 08:27:08;;;;;;;12.30;2.47;;;0.00;99.90;;;;;;4985421;28;20039;-82
2022/01/06 08:29:35;;;;;;;8.30;2.30;;;0.00;99.90;;;;;;4986019;28;20062;-82
2022/01/06 08:32:01;;;;;;;21.33;3.50;;;0.10;99.90;;;;;;4983425;28;20042;-82
2022/01/06 08:34:26;;;;;;;13.63;2.05;;;0.20;99.90;;;;;;4984372;28;20154;-80
2022/01/06 08:36:53;;;;;;;19.40;3.40;;;0.00;99.90;;;;;;4968957;28;20073;-80
2022/01/06 08:39:20;;;;;;;8.75;1.83;;;0.20;99.90;;;;;;4986398;28;20062;-80
2022/01/06 08:41:46;;;;;;;11.95;2.30;;;0.30;99.90;;;;;;4987134;28;20039;-80
2022/01/06 08:44:11;;;;;;;17.95;3.10;;;0.40;99.90;;;;;;4987471;28;20070;-80
2022/01/06 08:46:37;;;;;;;10.40;2.15;;;0.40;99.90;;;;;;4968844;28;20043;-80
2022/01/06 08:49:04;;;;;;;14.52;3.03;;;0.50;99.90;;;;;;4968928;28;20122;-80
2022/01/06 08:51:29;;;;;;;14.52;3.10;;;0.60;99.90;;;;;;4990742;28;20127;-80
2022/01/06 08:53:55;;;;;;;12.40;2.15;;;0.70;99.90;;;;;;4960111;28;20050;-81
2022/01/06 08:56:21;;;;;;;15.77;2.38;;;0.80;99.90;;;;;;4990788;28;20049;-80
2022/01/06 08:58:46;;;;;;;14.15;2.88;;;0.90;99.90;;;;;;4989648;28;20094;-80
2022/01/06 09:01:12;;;;;;;14.95;2.58;;;1.00;99.90;;;;;;4969771;28;20047;-80
2022/01/06 09:03:38;;;;;;;14.63;2.22;;;1.30;99.90;;;;;;4986027;28;20126;-80
2022/01/06 09:06:03;;;;;;;14.45;3.20;;;1.40;99.90;;;;;;4969684;28;20058;-80
2022/01/06 09:08:29;;;;;;;12.10;2.85;;;1.60;99.90;;;;;;4954282;28;20057;-80
2022/01/06 09:10:55;;;;;;;14.32;2.65;;;1.70;99.90;;;;;;4987186;28;20046;-80
2022/01/06 09:13:20;;;;;;;14.93;3.22;;;1.90;99.90;;;;;;4955572;28;20043;-77
2022/01/06 09:15:46;;;;;;;17.83;2.65;;;2.10;99.90;;;;;;4965614;28;20042;-80
2022/01/06 09:18:12;;;;;;;19.60;2.90;;;2.20;99.90;;;;;;4944907;28;20039;-82
2022/01/06 09:20:38;;;;;;;17.23;2.58;;;2.40;99.90;;;;;;4955875;28;20043;-79
2022/01/06 09:23:03;;;;;;;14.52;3.38;;;2.30;99.90;;;;;;4973759;28;20027;-79
2022/01/06 09:25:29;;;;;;;18.13;3.08;;;2.30;99.90;;;;;;4940949;28;20480;-80
2022/01/06 09:27:54;;;;;;;11.38;2.15;;;2.40;99.90;;;;;;4956890;28;20030;-80
2022/01/06 09:30:23;;;;;;;9.40;3.70;;;2.50;99.90;;;;;;4975371;28;20043;-80
2022/01/06 09:32:50;;;;;;;17.70;4.63;;;2.60;99.90;;;;;;4971556;28;20153;-80
2022/01/06 09:35:16;;;;;;;26.50;3.15;;;2.90;99.90;;;;;;4976470;28;20039;-80
2022/01/06 09:37:41;;;;;;;19.60;3.80;;;3.20;99.90;;;;;;4951808;29;20071;-80
2022/01/06 09:40:09;;;;;;;9.35;2.22;;;3.70;99.90;;;;;;4956337;28;20047;-80
2022/01/06 09:42:35;;;;;;;16.48;3.83;;;4.10;99.90;;;;;;4957919;28;20047;-81
2022/01/06 09:45:02;;;;;;;17.25;5.03;;;4.40;99.90;;;;;;4975745;28;20039;-80
2022/01/06 09:47:30;;;;;;;15.13;2.90;;;4.70;99.90;;;;;;4942216;28;20053;-80
2022/01/06 09:49:56;;;;;;;10.77;2.85;;;4.80;99.90;;;;;;4975929;28;20034;-81
2022/01/06 09:52:22;;;;;;;14.25;3.22;;;4.80;99.90;;;;;;4958677;28;20054;-81
2022/01/06 09:54:48;;;;;;;13.30;3.17;;;5.00;99.90;;;;;;4958340;28;20093;-78
2022/01/06 09:57:14;;;;;;;19.67;2.80;;;5.20;99.90;;;;;;4973331;28;20090;-79
2022/01/06 09:59:43;;;;;;;10.88;2.35;;;5.40;99.90;;;;;;4955566;28;20046;-79
2022/01/06 10:02:16;;;;;;;8.77;3.20;;;5.40;99.90;;;;;;4955685;28;20085;-79
2022/01/06 10:04:41;;;;;;;;;;;5.40;99.90;;;;;;4956375;28;20119;-79
2022/01/06 10:07:08;;;;;;;17.27;3.65;;;5.20;99.90;;;;;;4972861;28;20000;-79
2022/01/06 10:09:37;;;;;;;17.00;3.28;;;5.00;99.90;;;;;;4955851;28;20106;-79
2022/01/06 10:12:11;;;;;;;12.85;4.18;;;4.80;99.90;;;;;;4955654;28;20082;-79
2022/01/06 10:14:44;;;;;;;15.50;3.50;;;4.60;99.90;;;;;;4955802;28;20154;-79
2022/01/06 10:17:12;;;;;;;11.43;2.58;;;4.40;99.90;;;;;;4955322;28;20085;-79
2022/01/06 10:19:43;;;;;;;10.43;3.22;;;4.20;99.90;;;;;;4955368;28;20051;-79
2022/01/06 10:22:18;;;;;;;12.07;2.42;;;4.10;99.90;;;;;;4955466;28;20039;-79
2022/01/06 10:24:46;;;;;;;12.27;3.45;;;4.00;99.90;;;;;;4955383;28;20479;-79
2022/01/06 10:27:14;;;;;;;13.93;2.70;;;4.00;99.90;;;;;;4955348;28;20053;-79
2022/01/06 10:29:48;;;;;;;18.05;3.53;;;3.90;99.90;;;;;;4955365;28;20046;-79
2022/01/06 10:32:19;;;;;;;13.13;3.15;;;3.90;99.90;;;;;;4955481;28;20078;-79
2022/01/06 10:34:56;;;;;;;19.48;4.00;;;3.90;99.90;;;;;;4955559;28;20053;-79
2022/01/06 10:37:24;;;;;;;11.70;3.03;;;3.90;99.90;;;;;;4955127;28;20047;-79
2022/01/06 10:39:52;;;;;;;18.30;3.40;;;3.90;99.90;;;;;;4956755;28;20353;-79
2022/01/06 10:42:23;;;;;;;16.40;3.67;;;4.00;99.90;;;;;;4959126;28;20128;-79
2022/01/06 10:44:53;;;;;;;10.15;3.95;;;4.00;99.90;;;;;;4958668;28;20051;-79
2022/01/06 10:47:52;;;;;;;22.80;3.78;;;4.00;99.90;;;;;;4976010;28;20046;-79
2022/01/06 10:50:27;;;;;;;19.50;4.95;;;4.10;99.90;;;;;;4948355;28;20447;-79
2022/01/06 10:52:57;;;;;;;15.02;4.05;;;4.10;99.90;;;;;;4958765;28;20174;-78
2022/01/06 10:55:30;;;;;;;15.00;4.15;;;4.20;99.90;;;;;;4958487;28;20034;-79
2022/01/06 10:58:01;;;;;;;18.25;4.55;;;4.20;99.90;;;;;;4976022;28;20173;-79
2022/01/06 11:00:33;;;;;;;13.85;3.72;;;4.20;99.90;;;;;;4958611;28;20048;-78
2022/01/06 11:03:13;;;;;;;11.55;3.03;;;4.30;99.90;;;;;;4958732;28;20511;-78
2022/01/06 11:05:40;;;;;;;13.15;3.17;;;4.40;99.90;;;;;;4958893;28;20038;-78
2022/01/06 11:08:07;;;;;;;18.33;3.10;;;4.40;99.90;;;;;;4942444;28;20176;-78
2022/01/06 11:10:36;;;;;;;18.88;3.67;;;4.40;99.90;;;;;;4958368;28;20400;-77
2022/01/06 11:13:06;;;;;;;12.48;2.65;;;4.50;99.90;;;;;;4959020;28;20043;-77
2022/01/06 11:15:32;;;;;;;14.30;3.30;;;4.50;99.90;;;;;;4959129;28;20050;-78
2022/01/06 11:18:00;;;;;;;11.48;3.33;;;4.50;99.90;;;;;;4957898;28;20460;-77
2022/01/06 11:20:27;;;;;;;12.55;3.13;;;4.50;99.90;;;;;;4942134;28;20038;-77
2022/01/06 11:22:55;;;;;;;5.70;2.30;;;4.60;99.90;;;;;;4958049;28;20047;-77
2022/01/06 11:25:34;;;;;;;10.65;3.45;;;4.70;99.90;;;;;;4957654;28;20050;-77
2022/01/06 11:28:11;;;;;;;11.35;2.13;;;4.70;99.90;;;;;;4958083;28;20093;-77
2022/01/06 11:30:47;;;;;;;18.98;2.95;;;4.70;99.90;;;;;;4957916;28;20042;-77
2022/01/06 11:33:14;;;;;;;8.27;2.78;;;4.80;99.90;;;;;;4957841;28;20085;-77
2022/01/06 11:35:51;;;;;;;8.63;2.53;;;4.80;99.90;;;;;;4957721;28;20126;-77
2022/01/06 11:38:19;;;;;;;11.32;2.67;;;4.90;99.90;;;;;;4957453;28;20050;-77
2022/01/06 11:40:46;;;;;;;14.43;2.78;;;4.90;99.90;;;;;;4957691;28;20046;-77
2022/01/06 11:43:12;;;;;;;11.60;3.10;;;5.00;99.90;;;;;;4957717;28;20046;-77
2022/01/06 11:45:38;;;;;;;14.75;3.03;;;5.00;99.90;;;;;;4957511;28;20514;-77
2022/01/06 11:48:14;;;;;;;11.23;2.53;;;5.10;99.90;;;;;;4957421;28;20038;-77
2022/01/06 11:50:46;;;;;;;12.90;2.78;;;5.10;99.90;;;;;;4956698;28;20077;-77
2022/01/06 11:53:12;;;;;;;15.55;3.58;;;5.20;99.90;;;;;;4958077;28;20066;-78
2022/01/06 11:55:41;;;;;;;18.42;3.17;;;5.20;99.90;;;;;;4958498;28;20075;-78
2022/01/06 11:58:14;;;;;;;17.98;2.83;;;5.20;99.90;;;;;;4957836;28;20050;-78
2022/01/06 12:00:52;;;;;;;6.13;2.17;;;5.30;99.90;;;;;;4958145;28;20104;-78
2022/01/06 12:03:18;;;;;;;12.73;2.50;;;5.30;99.90;;;;;;4958319;28;20050;-78
2022/01/06 12:05:48;;;;;;;16.23;2.47;;;5.40;99.90;;;;;;4975131;28;20046;-78
2022/01/06 12:08:14;;;;;;;9.90;2.47;;;5.40;99.90;;;;;;4957762;28;20066;-78
2022/01/06 12:10:46;;;;;;;11.75;2.00;;;5.50;99.90;;;;;;4957334;28;20038;-78
2022/01/06 12:13:12;;;;;;;13.40;2.90;;;5.60;99.90;;;;;;4957721;28;20042;-78
2022/01/06 12:15:49;;;;;;;8.90;3.13;;;5.60;99.90;;;;;;4957531;28;20129;-80
2022/01/06 12:18:20;;;;;;;16.13;2.63;;;5.70;99.90;;;;;;4957340;28;20129;-78
2022/01/06 12:20:47;;;;;;;11.43;2.50;;;5.70;99.90;;;;;;4957302;28;20499;-78
2022/01/06 12:23:13;;;;;;;7.70;2.90;;;5.80;99.90;;;;;;4957073;28;20042;-78
2022/01/06 12:25:38;;;;;;;9.98;2.53;;;5.80;99.90;;;;;;4959476;28;20045;-80
2022/01/06 12:28:09;;;;;;;13.13;3.30;;;5.80;99.90;;;;;;4960088;28;20129;-80
2022/01/06 12:30:39;;;;;;;15.30;3.25;;;5.90;99.90;;;;;;4959822;28;20066;-81
2022/01/06 12:33:07;;;;;;;9.90;2.80;;;5.90;99.90;;;;;;4959631;28;20043;-81
2022/01/06 12:35:37;;;;;;;15.40;2.40;;;6.00;99.90;;;;;;4959001;28;20101;-81
2022/01/06 12:38:02;;;;;;;19.02;2.60;;;6.00;99.90;;;;;;4958634;28;20034;-80
2022/01/06 12:40:43;;;;;;;16.88;3.25;;;6.10;99.90;;;;;;4959668;28;20090;-81
2022/01/06 12:43:19;;;;;;;18.92;2.90;;;6.10;99.90;;;;;;4960544;28;20051;-81
2022/01/06 12:45:46;;;;;;;14.45;2.70;;;6.10;99.90;;;;;;4960937;28;20035;-81
2022/01/06 12:48:13;;;;;;;7.15;2.08;;;6.20;99.90;;;;;;4961325;28;20070;-81
2022/01/06 12:50:49;;;;;;;13.43;2.42;;;6.20;99.90;;;;;;4960712;28;20388;-81
2022/01/06 12:53:33;;;;;;;8.27;2.03;;;6.20;99.90;;;;;;4945060;28;20031;-81
2022/01/06 12:55:59;;;;;;;14.88;2.40;;;6.10;99.90;;;;;;4960646;28;20050;-81
2022/01/06 12:58:27;;;;;;;9.32;2.50;;;6.20;99.90;;;;;;4960181;28;20085;-81
2022/01/06 13:00:55;;;;;;;12.65;1.75;;;6.20;99.90;;;;;;4958603;28;20038;-82
2022/01/06 13:03:32;;;;;;;16.08;2.83;;;6.30;99.90;;;;;;4959895;28;20174;-81